sensor_id;sensor_type;location;lat;lon;timestamp;pressure;altitude;pressure_sealevel;temperature;humidity
59168;BME280;44948;55.046;73.266;2022-11-28T00:00:36;104273.84;;;-25.84;66.60
59168;BME280;44948;55.046;73.266;2022-11-28T00:02:19;104278.09;;;-25.83;67.44
59168;BME280;44948;55.046;73.266;2022-11-28T00:04:01;104251.94;;;-25.99;67.14
59168;BME280;44948;55.046;73.266;2022-11-28T00:05:43;104278.31;;;-25.81;66.95
59168;BME280;44948;55.046;73.266;2022-11-28T00:07:26;104277.19;;;-25.83;67.11
59168;BME280;44948;55.046;73.266;2022-11-28T00:09:08;104268.91;;;-25.89;66.84
59168;BME280;44948;55.046;73.266;2022-11-28T00:10:50;104286.88;;;-25.85;67.07
59168;BME280;44948;55.046;73.266;2022-11-28T00:12:34;104288.22;;;-25.87;67.26
59168;BME280;44948;55.046;73.266;2022-11-28T00:14:17;104281.97;;;-25.90;66.80
59168;BME280;44948;55.046;73.266;2022-11-28T00:16:01;104285.81;;;-25.92;67.51
59168;BME280;44948;55.046;73.266;2022-11-28T00:17:44;104254.94;;;-26.07;67.44
59168;BME280;44948;55.046;73.266;2022-11-28T00:19:27;104283.97;;;-25.88;66.84
59168;BME280;44948;55.046;73.266;2022-11-28T00:21:11;104256.94;;;-26.05;67.29
59168;BME280;44948;55.046;73.266;2022-11-28T00:22:54;104285.53;;;-25.88;67.29
59168;BME280;44948;55.046;73.266;2022-11-28T00:24:36;104283.59;;;-25.96;67.07
59168;BME280;44948;55.046;73.266;2022-11-28T00:26:22;104277.56;;;-25.98;67.37
59168;BME280;44948;55.046;73.266;2022-11-28T00:28:04;104278.28;;;-25.99;67.01
59168;BME280;44948;55.046;73.266;2022-11-28T00:29:48;104281.66;;;-26.05;67.52
59168;BME280;44948;55.046;73.266;2022-11-28T00:31:32;104277.16;;;-26.02;67.11
59168;BME280;44948;55.046;73.266;2022-11-28T00:33:16;104282.13;;;-26.02;67.44
59168;BME280;44948;55.046;73.266;2022-11-28T00:34:58;104275.59;;;-26.07;67.24
59168;BME280;44948;55.046;73.266;2022-11-28T00:36:45;104278.09;;;-26.07;67.32
59168;BME280;44948;55.046;73.266;2022-11-28T00:38:28;104279.88;;;-26.06;67.46
59168;BME280;44948;55.046;73.266;2022-11-28T00:40:11;104278.09;;;-26.07;67.68
59168;BME280;44948;55.046;73.266;2022-11-28T00:41:53;104280.06;;;-26.04;67.01
59168;BME280;44948;55.046;73.266;2022-11-28T00:43:36;104274.00;;;-26.00;66.98
59168;BME280;44948;55.046;73.266;2022-11-28T00:45:18;104270.84;;;-25.99;67.57
59168;BME280;44948;55.046;73.266;2022-11-28T00:47:00;104272.22;;;-26.02;67.31
59168;BME280;44948;55.046;73.266;2022-11-28T00:48:44;104269.06;;;-26.00;67.54
59168;BME280;44948;55.046;73.266;2022-11-28T00:50:26;104274.91;;;-26.00;66.88
59168;BME280;44948;55.046;73.266;2022-11-28T00:52:08;104269.66;;;-25.96;67.40
59168;BME280;44948;55.046;73.266;2022-11-28T00:53:53;104274.81;;;-25.94;67.23
59168;BME280;44948;55.046;73.266;2022-11-28T00:55:38;104253.81;;;-26.09;66.99
59168;BME280;44948;55.046;73.266;2022-11-28T00:57:21;104271.22;;;-25.96;66.94
59168;BME280;44948;55.046;73.266;2022-11-28T00:59:03;104245.09;;;-26.13;67.51
59168;BME280;44948;55.046;73.266;2022-11-28T01:00:45;104274.81;;;-25.94;67.48
59168;BME280;44948;55.046;73.266;2022-11-28T01:02:28;104240.34;;;-26.11;66.79
59168;BME280;44948;55.046;73.266;2022-11-28T01:04:12;104273.22;;;-25.94;67.75
59168;BME280;44948;55.046;73.266;2022-11-28T01:05:55;104263.59;;;-25.98;67.67
59168;BME280;44948;55.046;73.266;2022-11-28T01:07:37;104241.66;;;-26.08;67.42
59168;BME280;44948;55.046;73.266;2022-11-28T01:09:23;104271.53;;;-26.00;67.42
59168;BME280;44948;55.046;73.266;2022-11-28T01:11:12;104263.66;;;-26.04;66.91
59168;BME280;44948;55.046;73.266;2022-11-28T01:12:54;104265.03;;;-26.06;67.15
59168;BME280;44948;55.046;73.266;2022-11-28T01:14:36;104261.50;;;-26.13;67.62
59168;BME280;44948;55.046;73.266;2022-11-28T01:16:19;104269.13;;;-26.12;67.41
59168;BME280;44948;55.046;73.266;2022-11-28T01:18:01;104265.97;;;-26.11;67.98
59168;BME280;44948;55.046;73.266;2022-11-28T01:19:44;104270.25;;;-26.10;67.32
59168;BME280;44948;55.046;73.266;2022-11-28T01:21:26;104251.41;;;-26.20;67.77
59168;BME280;44948;55.046;73.266;2022-11-28T01:23:09;104248.03;;;-26.15;67.79
59168;BME280;44948;55.046;73.266;2022-11-28T01:24:51;104272.44;;;-26.00;67.75
59168;BME280;44948;55.046;73.266;2022-11-28T01:26:33;104270.13;;;-25.98;67.37
59168;BME280;44948;55.046;73.266;2022-11-28T01:28:16;104265.44;;;-26.03;67.17
59168;BME280;44948;55.046;73.266;2022-11-28T01:29:58;104278.94;;;-26.00;67.04
59168;BME280;44948;55.046;73.266;2022-11-28T01:31:40;104268.44;;;-26.11;66.86
59168;BME280;44948;55.046;73.266;2022-11-28T01:33:22;104278.09;;;-26.07;67.03
59168;BME280;44948;55.046;73.266;2022-11-28T01:35:05;104231.53;;;-26.33;67.13
59168;BME280;44948;55.046;73.266;2022-11-28T01:36:48;104274.50;;;-26.09;67.09
59168;BME280;44948;55.046;73.266;2022-11-28T01:38:30;104246.78;;;-26.30;67.26
59168;BME280;44948;55.046;73.266;2022-11-28T01:40:12;104283.09;;;-26.12;67.28
59168;BME280;44948;55.046;73.266;2022-11-28T01:41:55;104290.72;;;-26.11;67.05
59168;BME280;44948;55.046;73.266;2022-11-28T01:46:01;104280.81;;;-26.11;67.07
59168;BME280;44948;55.046;73.266;2022-11-28T01:47:44;104249.53;;;-26.34;67.09
59168;BME280;44948;55.046;73.266;2022-11-28T01:49:34;104258.84;;;-26.20;67.16
59168;BME280;44948;55.046;73.266;2022-11-28T01:51:17;104287.97;;;-26.07;67.15
59168;BME280;44948;55.046;73.266;2022-11-28T01:53:03;104285.91;;;-26.04;67.33
59168;BME280;44948;55.046;73.266;2022-11-28T01:54:49;104293.78;;;-26.00;67.21
59168;BME280;44948;55.046;73.266;2022-11-28T01:56:41;104297.16;;;-26.00;66.99
59168;BME280;44948;55.046;73.266;2022-11-28T01:58:25;104300.53;;;-25.99;67.22
59168;BME280;44948;55.046;73.266;2022-11-28T02:00:13;104285.72;;;-26.05;66.91
59168;BME280;44948;55.046;73.266;2022-11-28T02:01:56;104304.13;;;-26.03;67.13
59168;BME280;44948;55.046;73.266;2022-11-28T02:03:44;104295.66;;;-26.11;67.77
59168;BME280;44948;55.046;73.266;2022-11-28T02:05:27;104296.94;;;-26.02;67.42
59168;BME280;44948;55.046;73.266;2022-11-28T02:07:09;104266.03;;;-26.22;67.39
59168;BME280;44948;55.046;73.266;2022-11-28T02:08:53;104301.22;;;-26.00;67.52
59168;BME280;44948;55.046;73.266;2022-11-28T02:10:48;104295.13;;;-26.03;67.00
59168;BME280;44948;55.046;73.266;2022-11-28T02:22:40;104315.81;;;-26.02;67.01
59168;BME280;44948;55.046;73.266;2022-11-28T02:24:34;104318.28;;;-26.02;67.26
59168;BME280;44948;55.046;73.266;2022-11-28T02:36:34;104313.66;;;-26.12;67.44
59168;BME280;44948;55.046;73.266;2022-11-28T02:44:51;104321.69;;;-26.02;67.35
59168;BME280;44948;55.046;73.266;2022-11-28T02:50:49;104322.59;;;-26.07;67.11
59168;BME280;44948;55.046;73.266;2022-11-28T02:52:44;104323.50;;;-26.06;66.86
59168;BME280;44948;55.046;73.266;2022-11-28T02:54:28;104225.47;;;-26.65;67.03
59168;BME280;44948;55.046;73.266;2022-11-28T02:56:12;104285.41;;;-26.25;67.00
59168;BME280;44948;55.046;73.266;2022-11-28T02:57:55;104321.72;;;-26.07;67.25
59168;BME280;44948;55.046;73.266;2022-11-28T03:01:33;104323.28;;;-26.08;67.53
59168;BME280;44948;55.046;73.266;2022-11-28T03:03:47;104321.22;;;-26.05;67.15
59168;BME280;44948;55.046;73.266;2022-11-28T03:05:50;104295.72;;;-26.22;67.60
59168;BME280;44948;55.046;73.266;2022-11-28T03:11:56;104323.28;;;-26.08;67.32
59168;BME280;44948;55.046;73.266;2022-11-28T03:21:57;104342.28;;;-25.95;67.41
59168;BME280;44948;55.046;73.266;2022-11-28T03:24:02;104335.50;;;-25.91;67.28
59168;BME280;44948;55.046;73.266;2022-11-28T03:25:57;104331.44;;;-25.90;67.18
59168;BME280;44948;55.046;73.266;2022-11-28T03:29:48;104331.97;;;-25.98;67.44
59168;BME280;44948;55.046;73.266;2022-11-28T03:31:37;104339.66;;;-26.03;67.80
59168;BME280;44948;55.046;73.266;2022-11-28T03:33:21;104317.28;;;-26.15;67.17
59168;BME280;44948;55.046;73.266;2022-11-28T03:35:09;104307.84;;;-26.18;67.37
59168;BME280;44948;55.046;73.266;2022-11-28T03:37:04;104331.59;;;-26.07;67.55
59168;BME280;44948;55.046;73.266;2022-11-28T03:38:55;104338.72;;;-25.97;67.17
59168;BME280;44948;55.046;73.266;2022-11-28T03:40:44;104325.50;;;-26.04;67.35
59168;BME280;44948;55.046;73.266;2022-11-28T03:42:31;104337.06;;;-25.91;67.29
59168;BME280;44948;55.046;73.266;2022-11-28T03:44:22;104312.22;;;-26.04;67.40
59168;BME280;44948;55.046;73.266;2022-11-28T03:46:11;104346.69;;;-25.82;67.02
59168;BME280;44948;55.046;73.266;2022-11-28T03:48:02;104344.44;;;-25.80;67.34
59168;BME280;44948;55.046;73.266;2022-11-28T03:49:50;104348.22;;;-25.77;67.26
59168;BME280;44948;55.046;73.266;2022-11-28T03:52:04;104348.16;;;-25.71;67.18
59168;BME280;44948;55.046;73.266;2022-11-28T03:53:58;104350.41;;;-25.67;67.02
59168;BME280;44948;55.046;73.266;2022-11-28T03:55:49;104352.63;;;-25.63;67.32
59168;BME280;44948;55.046;73.266;2022-11-28T03:59:52;104316.72;;;-25.78;67.31
59168;BME280;44948;55.046;73.266;2022-11-28T04:01:50;104350.81;;;-25.64;67.20
59168;BME280;44948;55.046;73.266;2022-11-28T04:09:12;104350.97;;;-25.57;67.63
59168;BME280;44948;55.046;73.266;2022-11-28T04:13:06;104332.06;;;-25.56;67.27
59168;BME280;44948;55.046;73.266;2022-11-28T04:15:01;104345.59;;;-25.36;67.40
59168;BME280;44948;55.046;73.266;2022-11-28T04:16:50;104322.59;;;-25.53;67.47
59168;BME280;44948;55.046;73.266;2022-11-28T04:21:07;104354.22;;;-25.21;66.90
59168;BME280;44948;55.046;73.266;2022-11-28T04:22:56;104351.06;;;-25.20;66.86
59168;BME280;44948;55.046;73.266;2022-11-28T04:24:47;104344.97;;;-25.17;67.35
59168;BME280;44948;55.046;73.266;2022-11-28T04:26:36;104334.09;;;-25.12;67.36
59168;BME280;44948;55.046;73.266;2022-11-28T04:28:23;104312.38;;;-25.25;67.13
59168;BME280;44948;55.046;73.266;2022-11-28T04:30:07;104339.16;;;-24.99;67.23
59168;BME280;44948;55.046;73.266;2022-11-28T04:31:53;104335.00;;;-24.93;67.45
59168;BME280;44948;55.046;73.266;2022-11-28T04:33:42;104328.00;;;-24.90;67.18
59168;BME280;44948;55.046;73.266;2022-11-28T04:35:29;104327.66;;;-24.80;67.17
59168;BME280;44948;55.046;73.266;2022-11-28T04:37:13;104336.13;;;-24.72;67.31
59168;BME280;44948;55.046;73.266;2022-11-28T04:38:57;104337.00;;;-24.72;67.25
59168;BME280;44948;55.046;73.266;2022-11-28T04:40:41;104329.56;;;-24.72;67.22
59168;BME280;44948;55.046;73.266;2022-11-28T04:42:36;104281.88;;;-24.95;66.96
59168;BME280;44948;55.046;73.266;2022-11-28T04:44:39;104332.66;;;-24.49;67.12
59168;BME280;44948;55.046;73.266;2022-11-28T04:46:34;104316.41;;;-24.47;66.93
59168;BME280;44948;55.046;73.266;2022-11-28T04:48:18;104333.78;;;-24.34;66.72
59168;BME280;44948;55.046;73.266;2022-11-28T04:50:01;104335.84;;;-24.37;66.72
59168;BME280;44948;55.046;73.266;2022-11-28T04:54:38;104326.41;;;-24.22;66.54
59168;BME280;44948;55.046;73.266;2022-11-28T04:56:35;104334.59;;;-24.10;66.71
59168;BME280;44948;55.046;73.266;2022-11-28T04:58:45;104335.53;;;-23.97;66.50
59168;BME280;44948;55.046;73.266;2022-11-28T05:00:33;104307.09;;;-24.11;66.81
59168;BME280;44948;55.046;73.266;2022-11-28T05:02:16;104327.69;;;-23.87;66.43
59168;BME280;44948;55.046;73.266;2022-11-28T05:04:00;104327.63;;;-23.81;66.30
59168;BME280;44948;55.046;73.266;2022-11-28T05:05:45;104340.50;;;-23.84;66.21
59168;BME280;44948;55.046;73.266;2022-11-28T05:07:28;104340.59;;;-23.77;66.00
59168;BME280;44948;55.046;73.266;2022-11-28T05:09:11;104339.19;;;-23.75;65.97
59168;BME280;44948;55.046;73.266;2022-11-28T05:10:54;104336.16;;;-23.67;66.27
59168;BME280;44948;55.046;73.266;2022-11-28T05:12:36;104342.38;;;-23.76;66.46
59168;BME280;44948;55.046;73.266;2022-11-28T05:14:19;104337.50;;;-23.69;65.79
59168;BME280;44948;55.046;73.266;2022-11-28T05:16:01;104335.19;;;-23.49;66.36
59168;BME280;44948;55.046;73.266;2022-11-28T05:17:45;104336.75;;;-23.37;66.08
59168;BME280;44948;55.046;73.266;2022-11-28T05:19:27;104336.34;;;-23.40;65.74
59168;BME280;44948;55.046;73.266;2022-11-28T05:21:10;104343.69;;;-23.34;65.34
59168;BME280;44948;55.046;73.266;2022-11-28T05:22:52;104344.41;;;-23.35;65.50
59168;BME280;44948;55.046;73.266;2022-11-28T05:24:35;104344.41;;;-23.35;65.77
59168;BME280;44948;55.046;73.266;2022-11-28T05:26:19;104341.63;;;-23.31;65.86
59168;BME280;44948;55.046;73.266;2022-11-28T05:28:02;104341.63;;;-23.31;65.49
59168;BME280;44948;55.046;73.266;2022-11-28T05:29:44;104336.69;;;-23.31;65.51
59168;BME280;44948;55.046;73.266;2022-11-28T05:31:27;104309.63;;;-23.35;65.59
59168;BME280;44948;55.046;73.266;2022-11-28T05:33:10;104337.16;;;-23.08;65.44
59168;BME280;44948;55.046;73.266;2022-11-28T05:34:52;104334.22;;;-22.99;65.45
59168;BME280;44948;55.046;73.266;2022-11-28T05:36:35;104323.88;;;-23.02;65.17
59168;BME280;44948;55.046;73.266;2022-11-28T05:38:17;104331.81;;;-22.91;65.19
59168;BME280;44948;55.046;73.266;2022-11-28T05:39:59;104306.81;;;-23.06;65.14
59168;BME280;44948;55.046;73.266;2022-11-28T05:41:42;104327.75;;;-23.04;65.12
59168;BME280;44948;55.046;73.266;2022-11-28T05:43:25;104337.19;;;-23.01;65.08
59168;BME280;44948;55.046;73.266;2022-11-28T05:45:07;104332.84;;;-22.97;65.42
59168;BME280;44948;55.046;73.266;2022-11-28T05:46:50;104336.41;;;-22.95;65.41
59168;BME280;44948;55.046;73.266;2022-11-28T05:48:32;104326.69;;;-23.06;65.12
59168;BME280;44948;55.046;73.266;2022-11-28T05:50:14;104336.63;;;-23.06;64.91
59168;BME280;44948;55.046;73.266;2022-11-28T05:51:57;104335.72;;;-22.94;65.13
59168;BME280;44948;55.046;73.266;2022-11-28T05:53:39;104339.09;;;-22.93;65.49
59168;BME280;44948;55.046;73.266;2022-11-28T05:55:21;104332.44;;;-23.00;64.73
59168;BME280;44948;55.046;73.266;2022-11-28T05:57:04;104338.09;;;-23.01;64.96
59168;BME280;44948;55.046;73.266;2022-11-28T05:58:48;104338.78;;;-23.02;64.57
59168;BME280;44948;55.046;73.266;2022-11-28T06:00:31;104337.88;;;-23.02;64.62
59168;BME280;44948;55.046;73.266;2022-11-28T06:02:13;104314.97;;;-23.19;64.85
59168;BME280;44948;55.046;73.266;2022-11-28T06:03:56;104338.44;;;-23.05;64.95
59168;BME280;44948;55.046;73.266;2022-11-28T06:05:42;104342.31;;;-23.07;64.80
59168;BME280;44948;55.046;73.266;2022-11-28T06:07:24;104346.38;;;-23.07;65.25
59168;BME280;44948;55.046;73.266;2022-11-28T06:09:06;104315.69;;;-23.20;65.01
59168;BME280;44948;55.046;73.266;2022-11-28T06:10:55;104341.06;;;-23.03;65.11
59168;BME280;44948;55.046;73.266;2022-11-28T06:12:38;104348.38;;;-23.05;64.44
59168;BME280;44948;55.046;73.266;2022-11-28T06:14:20;104347.59;;;-23.11;64.77
59168;BME280;44948;55.046;73.266;2022-11-28T06:16:07;104348.69;;;-23.09;65.13
59168;BME280;44948;55.046;73.266;2022-11-28T06:17:49;104330.91;;;-23.12;64.95
59168;BME280;44948;55.046;73.266;2022-11-28T06:19:34;104263.91;;;-23.56;64.75
59168;BME280;44948;55.046;73.266;2022-11-28T06:21:17;104320.66;;;-23.20;64.67
59168;BME280;44948;55.046;73.266;2022-11-28T06:22:59;104339.44;;;-23.10;65.02
59168;BME280;44948;55.046;73.266;2022-11-28T06:24:42;104348.03;;;-23.01;64.74
59168;BME280;44948;55.046;73.266;2022-11-28T06:26:25;104345.25;;;-22.97;64.84
59168;BME280;44948;55.046;73.266;2022-11-28T06:28:08;104344.44;;;-22.90;65.29
59168;BME280;44948;55.046;73.266;2022-11-28T06:29:51;104343.94;;;-22.87;65.08
59168;BME280;44948;55.046;73.266;2022-11-28T06:31:33;104317.53;;;-23.00;64.95
59168;BME280;44948;55.046;73.266;2022-11-28T06:33:18;104338.47;;;-22.85;64.84
59168;BME280;44948;55.046;73.266;2022-11-28T06:35:00;104349.09;;;-22.86;64.51
59168;BME280;44948;55.046;73.266;2022-11-28T06:36:43;104322.09;;;-23.03;64.82
59168;BME280;44948;55.046;73.266;2022-11-28T06:38:27;104342.16;;;-22.88;64.68
59168;BME280;44948;55.046;73.266;2022-11-28T06:40:11;104309.31;;;-23.06;64.60
59168;BME280;44948;55.046;73.266;2022-11-28T06:41:59;104342.47;;;-22.92;64.66
59168;BME280;44948;55.046;73.266;2022-11-28T06:43:41;104340.50;;;-22.95;64.09
59168;BME280;44948;55.046;73.266;2022-11-28T06:45:24;104346.03;;;-22.90;64.04
59168;BME280;44948;55.046;73.266;2022-11-28T06:47:06;104340.88;;;-22.92;64.54
59168;BME280;44948;55.046;73.266;2022-11-28T06:48:52;104348.41;;;-22.85;64.75
59168;BME280;44948;55.046;73.266;2022-11-28T06:50:34;104341.13;;;-22.83;64.39
59168;BME280;44948;55.046;73.266;2022-11-28T06:52:18;104318.81;;;-22.96;64.19
59168;BME280;44948;55.046;73.266;2022-11-28T06:54:01;104353.16;;;-22.74;64.57
59168;BME280;44948;55.046;73.266;2022-11-28T06:55:43;104327.75;;;-22.91;64.10
59168;BME280;44948;55.046;73.266;2022-11-28T06:57:26;104344.63;;;-22.76;63.95
59168;BME280;44948;55.046;73.266;2022-11-28T06:59:10;104319.06;;;-22.87;64.02
59168;BME280;44948;55.046;73.266;2022-11-28T07:00:53;104268.75;;;-23.12;63.94
59168;BME280;44948;55.046;73.266;2022-11-28T07:02:36;104355.97;;;-22.65;64.04
59168;BME280;44948;55.046;73.266;2022-11-28T07:04:18;104359.94;;;-22.73;63.63
59168;BME280;44948;55.046;73.266;2022-11-28T07:06:01;104330.34;;;-22.97;63.32
59168;BME280;44948;55.046;73.266;2022-11-28T07:07:44;104353.56;;;-22.83;63.48
59168;BME280;44948;55.046;73.266;2022-11-28T07:09:27;104347.94;;;-22.82;63.72
59168;BME280;44948;55.046;73.266;2022-11-28T07:11:14;104315.28;;;-23.11;63.45
59168;BME280;44948;55.046;73.266;2022-11-28T07:12:59;104354.28;;;-22.84;63.61
59168;BME280;44948;55.046;73.266;2022-11-28T07:14:41;104343.72;;;-22.76;63.56
59168;BME280;44948;55.046;73.266;2022-11-28T07:16:27;104342.34;;;-22.74;63.81
59168;BME280;44948;55.046;73.266;2022-11-28T07:18:10;104340.53;;;-22.75;63.61
59168;BME280;44948;55.046;73.266;2022-11-28T07:19:52;104343.94;;;-22.75;63.59
59168;BME280;44948;55.046;73.266;2022-11-28T07:21:35;104338.63;;;-22.71;63.47
59168;BME280;44948;55.046;73.266;2022-11-28T07:23:17;104346.28;;;-22.69;63.18
59168;BME280;44948;55.046;73.266;2022-11-28T07:24:59;104336.47;;;-22.75;63.15
59168;BME280;44948;55.046;73.266;2022-11-28T07:26:42;104343.91;;;-22.62;63.16
59168;BME280;44948;55.046;73.266;2022-11-28T07:28:25;104349.78;;;-22.61;63.15
59168;BME280;44948;55.046;73.266;2022-11-28T07:30:09;104346.56;;;-22.48;63.50
59168;BME280;44948;55.046;73.266;2022-11-28T07:31:51;104350.50;;;-22.43;63.23
59168;BME280;44948;55.046;73.266;2022-11-28T07:33:34;104348.03;;;-22.43;63.09
59168;BME280;44948;55.046;73.266;2022-11-28T07:35:16;104357.28;;;-22.42;63.38
59168;BME280;44948;55.046;73.266;2022-11-28T07:36:59;104357.97;;;-22.43;62.82
59168;BME280;44948;55.046;73.266;2022-11-28T07:38:41;104350.00;;;-22.40;63.11
59168;BME280;44948;55.046;73.266;2022-11-28T07:40:23;104348.03;;;-22.43;63.42
59168;BME280;44948;55.046;73.266;2022-11-28T07:42:09;104346.09;;;-22.38;62.94
59168;BME280;44948;55.046;73.266;2022-11-28T07:43:54;104321.56;;;-22.55;62.90
59168;BME280;44948;55.046;73.266;2022-11-28T07:45:40;104345.72;;;-22.41;62.95
59168;BME280;44948;55.046;73.266;2022-11-28T07:47:22;104342.81;;;-22.31;62.86
59168;BME280;44948;55.046;73.266;2022-11-28T07:49:05;104320.97;;;-22.47;62.83
59168;BME280;44948;55.046;73.266;2022-11-28T07:50:47;104343.19;;;-22.28;63.11
59168;BME280;44948;55.046;73.266;2022-11-28T07:52:29;104349.59;;;-22.23;63.04
59168;BME280;44948;55.046;73.266;2022-11-28T07:54:12;104339.31;;;-22.19;62.71
59168;BME280;44948;55.046;73.266;2022-11-28T07:55:54;104339.69;;;-22.16;62.87
59168;BME280;44948;55.046;73.266;2022-11-28T07:57:36;104348.19;;;-22.21;63.05
59168;BME280;44948;55.046;73.266;2022-11-28T07:59:18;104345.91;;;-22.20;62.68
59168;BME280;44948;55.046;73.266;2022-11-28T08:01:22;104344.50;;;-22.18;62.64
59168;BME280;44948;55.046;73.266;2022-11-28T08:03:05;104343.31;;;-22.14;62.98
59168;BME280;44948;55.046;73.266;2022-11-28T08:04:47;104343.13;;;-22.16;62.56
59168;BME280;44948;55.046;73.266;2022-11-28T08:06:30;104344.69;;;-22.16;62.60
59168;BME280;44948;55.046;73.266;2022-11-28T08:08:13;104339.22;;;-22.14;62.82
59168;BME280;44948;55.046;73.266;2022-11-28T08:09:55;104342.59;;;-22.13;63.01
59168;BME280;44948;55.046;73.266;2022-11-28T08:11:38;104309.06;;;-22.22;62.97
59168;BME280;44948;55.046;73.266;2022-11-28T08:13:20;104340.88;;;-22.07;62.67
59168;BME280;44948;55.046;73.266;2022-11-28T08:15:02;104335.19;;;-22.06;62.73
59168;BME280;44948;55.046;73.266;2022-11-28T08:16:45;104345.34;;;-22.05;62.66
59168;BME280;44948;55.046;73.266;2022-11-28T08:18:27;104336.44;;;-22.03;62.61
59168;BME280;44948;55.046;73.266;2022-11-28T08:20:10;104339.31;;;-21.99;62.50
59168;BME280;44948;55.046;73.266;2022-11-28T08:21:52;104337.16;;;-22.04;62.80
59168;BME280;44948;55.046;73.266;2022-11-28T08:23:36;104340.69;;;-22.09;62.65
59168;BME280;44948;55.046;73.266;2022-11-28T08:25:18;104332.84;;;-22.12;62.36
59168;BME280;44948;55.046;73.266;2022-11-28T08:27:00;104332.94;;;-22.17;62.34
59168;BME280;44948;55.046;73.266;2022-11-28T08:28:46;104301.50;;;-22.37;62.33
59168;BME280;44948;55.046;73.266;2022-11-28T08:30:28;104339.31;;;-22.19;62.39
59168;BME280;44948;55.046;73.266;2022-11-28T08:32:11;104330.66;;;-22.16;62.28
59168;BME280;44948;55.046;73.266;2022-11-28T08:33:56;104333.72;;;-22.11;62.25
59168;BME280;44948;55.046;73.266;2022-11-28T08:35:38;104331.63;;;-22.08;62.08
59168;BME280;44948;55.046;73.266;2022-11-28T08:37:21;104337.34;;;-22.02;62.53
59168;BME280;44948;55.046;73.266;2022-11-28T08:39:04;104339.66;;;-22.04;62.09
59168;BME280;44948;55.046;73.266;2022-11-28T08:40:46;104325.56;;;-22.10;62.31
59168;BME280;44948;55.046;73.266;2022-11-28T08:42:28;104309.44;;;-22.19;61.88
59168;BME280;44948;55.046;73.266;2022-11-28T08:44:10;104333.25;;;-22.02;62.26
59168;BME280;44948;55.046;73.266;2022-11-28T08:45:53;104248.72;;;-22.54;62.06
59168;BME280;44948;55.046;73.266;2022-11-28T08:47:35;104299.13;;;-22.22;61.71
59168;BME280;44948;55.046;73.266;2022-11-28T08:49:18;104331.09;;;-22.06;62.14
59168;BME280;44948;55.046;73.266;2022-11-28T08:51:00;104330.19;;;-22.06;61.92
59168;BME280;44948;55.046;73.266;2022-11-28T08:52:43;104325.41;;;-22.05;61.76
59168;BME280;44948;55.046;73.266;2022-11-28T08:54:25;104321.31;;;-22.04;61.51
59168;BME280;44948;55.046;73.266;2022-11-28T08:56:07;104325.59;;;-22.03;62.07
59168;BME280;44948;55.046;73.266;2022-11-28T08:57:50;104325.31;;;-21.99;61.79
59168;BME280;44948;55.046;73.266;2022-11-28T08:59:32;104260.59;;;-22.39;61.67
59168;BME280;44948;55.046;73.266;2022-11-28T09:01:20;104323.72;;;-21.98;61.97
59168;BME280;44948;55.046;73.266;2022-11-28T09:03:04;104323.09;;;-22.03;61.88
59168;BME280;44948;55.046;73.266;2022-11-28T09:04:46;104328.56;;;-22.13;61.59
59168;BME280;44948;55.046;73.266;2022-11-28T09:06:28;104207.28;;;-22.80;61.38
59168;BME280;44948;55.046;73.266;2022-11-28T09:08:15;104324.28;;;-22.14;61.34
59168;BME280;44948;55.046;73.266;2022-11-28T09:09:57;104312.25;;;-22.30;61.39
59168;BME280;44948;55.046;73.266;2022-11-28T09:11:40;104299.91;;;-22.36;61.32
59168;BME280;44948;55.046;73.266;2022-11-28T09:13:23;104345.47;;;-22.10;61.26
59168;BME280;44948;55.046;73.266;2022-11-28T09:15:06;104307.84;;;-22.26;61.26
59168;BME280;44948;55.046;73.266;2022-11-28T09:16:48;104329.50;;;-22.05;61.24
59168;BME280;44948;55.046;73.266;2022-11-28T09:18:30;104341.63;;;-22.01;61.56
59168;BME280;44948;55.046;73.266;2022-11-28T09:20:13;104342.03;;;-21.98;61.50
59168;BME280;44948;55.046;73.266;2022-11-28T09:21:57;104333.53;;;-21.93;61.82
59168;BME280;44948;55.046;73.266;2022-11-28T09:23:42;104338.31;;;-21.94;61.64
59168;BME280;44948;55.046;73.266;2022-11-28T09:25:24;104330.16;;;-21.93;61.06
59168;BME280;44948;55.046;73.266;2022-11-28T09:27:06;104321.88;;;-21.99;61.33
59168;BME280;44948;55.046;73.266;2022-11-28T09:28:49;104329.56;;;-21.98;61.19
59168;BME280;44948;55.046;73.266;2022-11-28T09:30:32;104219.91;;;-22.59;61.40
59168;BME280;44948;55.046;73.266;2022-11-28T09:32:15;104321.31;;;-22.04;61.27
59168;BME280;44948;55.046;73.266;2022-11-28T09:33:57;104319.22;;;-22.01;61.61
59168;BME280;44948;55.046;73.266;2022-11-28T09:35:40;104320.31;;;-21.99;61.65
59168;BME280;44948;55.046;73.266;2022-11-28T09:37:22;104289.91;;;-22.16;61.30
59168;BME280;44948;55.046;73.266;2022-11-28T09:39:04;104308.13;;;-22.10;61.21
59168;BME280;44948;55.046;73.266;2022-11-28T09:40:50;104297.72;;;-22.20;61.71
59168;BME280;44948;55.046;73.266;2022-11-28T09:42:37;104319.53;;;-22.05;61.42
59168;BME280;44948;55.046;73.266;2022-11-28T09:46:10;104298.59;;;-22.20;61.31
59168;BME280;44948;55.046;73.266;2022-11-28T09:47:58;104317.38;;;-22.09;61.12
59168;BME280;44948;55.046;73.266;2022-11-28T09:51:50;104306.00;;;-22.07;61.42
59168;BME280;44948;55.046;73.266;2022-11-28T09:53:39;104296.06;;;-22.07;61.52
59168;BME280;44948;55.046;73.266;2022-11-28T09:55:28;104318.66;;;-22.06;61.33
59168;BME280;44948;55.046;73.266;2022-11-28T09:57:20;104315.97;;;-22.07;61.51
59168;BME280;44948;55.046;73.266;2022-11-28T09:59:12;104303.84;;;-22.11;61.17
59168;BME280;44948;55.046;73.266;2022-11-28T10:03:24;104306.66;;;-22.15;61.36
59168;BME280;44948;55.046;73.266;2022-11-28T10:07:27;104303.72;;;-22.06;61.54